createdAt,value
2022-08-17T00:02:26.439Z,99.90
2022-08-17T00:04:55.551Z,99.90
2022-08-17T00:07:23.327Z,99.90
2022-08-17T00:09:50.736Z,99.90
2022-08-17T00:12:41.114Z,99.90
2022-08-17T00:15:09.174Z,99.90
2022-08-17T00:17:38.575Z,99.90
2022-08-17T00:20:06.725Z,99.90
2022-08-17T00:22:36.370Z,99.90
2022-08-17T00:25:15.076Z,99.90
2022-08-17T00:27:42.533Z,99.90
2022-08-17T00:30:11.696Z,99.90
2022-08-17T00:33:12.667Z,99.90
2022-08-17T00:35:35.113Z,99.90
2022-08-17T00:38:04.424Z,99.90
2022-08-17T00:40:40.839Z,99.90
2022-08-17T00:43:36.053Z,99.90
2022-08-17T00:46:12.613Z,99.90
2022-08-17T00:48:40.624Z,99.90
2022-08-17T00:51:13.164Z,99.90
2022-08-17T00:53:44.434Z,99.90
2022-08-17T00:56:17.428Z,99.90
2022-08-17T00:58:45.381Z,99.90
2022-08-17T01:01:21.761Z,99.90
2022-08-17T01:03:51.276Z,99.90
2022-08-17T01:06:19.155Z,99.90
2022-08-17T01:08:46.664Z,99.90
2022-08-17T01:11:13.964Z,99.90
2022-08-17T01:13:43.792Z,99.90
2022-08-17T01:16:28.478Z,99.90
2022-08-17T01:19:00.298Z,99.90
2022-08-17T01:21:59.048Z,99.90
2022-08-17T01:24:27.774Z,99.90
2022-08-17T01:26:56.625Z,99.90
2022-08-17T01:29:26.104Z,99.90
2022-08-17T01:31:57.403Z,99.90
2022-08-17T01:34:25.294Z,99.90
2022-08-17T01:37:11.813Z,99.90
2022-08-17T01:39:51.707Z,99.90
2022-08-17T01:42:48.717Z,99.90
2022-08-17T01:45:23.316Z,99.90
2022-08-17T01:47:52.228Z,99.90
2022-08-17T01:50:24.878Z,99.90
2022-08-17T01:52:59.968Z,99.90
2022-08-17T01:55:32.868Z,99.90
2022-08-17T01:58:00.663Z,99.90
2022-08-17T02:00:59.370Z,99.90
2022-08-17T02:03:22.957Z,99.90
2022-08-17T02:05:51.488Z,99.90
2022-08-17T02:08:20.616Z,99.90
2022-08-17T02:11:11.174Z,99.90
2022-08-17T02:13:39.608Z,99.90
2022-08-17T02:16:07.273Z,99.90
2022-08-17T02:18:34.971Z,99.90
2022-08-17T02:21:03.018Z,99.90
2022-08-17T02:23:34.669Z,99.90
2022-08-17T02:26:02.998Z,99.90
2022-08-17T02:28:31.049Z,99.90
2022-08-17T02:31:05.828Z,99.90
2022-08-17T02:33:43.188Z,99.90
2022-08-17T02:36:13.022Z,99.90
2022-08-17T02:38:41.431Z,99.90
2022-08-17T02:41:09.989Z,99.90
2022-08-17T02:43:37.538Z,99.90
2022-08-17T02:46:05.088Z,99.90
2022-08-17T02:48:32.539Z,99.90
2022-08-17T02:51:01.250Z,99.90
2022-08-17T02:53:35.515Z,99.90
2022-08-17T02:56:04.493Z,99.90
2022-08-17T02:58:35.388Z,99.90
2022-08-17T03:01:08.810Z,99.90
2022-08-17T03:03:37.760Z,99.90
2022-08-17T03:06:06.491Z,99.90
2022-08-17T03:08:34.658Z,99.90
2022-08-17T03:11:02.214Z,99.90
2022-08-17T03:13:31.048Z,99.90
2022-08-17T03:15:59.078Z,99.90
2022-08-17T03:18:28.230Z,99.90
2022-08-17T03:20:58.626Z,99.90
2022-08-17T03:23:27.802Z,99.90
2022-08-17T03:25:57.877Z,99.90
2022-08-17T03:28:25.947Z,99.90
2022-08-17T03:30:53.670Z,99.90
2022-08-17T03:33:21.451Z,99.90
2022-08-17T03:35:49.198Z,99.90
2022-08-17T03:38:17.569Z,99.90
2022-08-17T03:40:58.948Z,99.90
2022-08-17T03:43:32.701Z,99.90
2022-08-17T03:46:28.810Z,99.90
2022-08-17T03:49:23.449Z,99.90
2022-08-17T03:52:09.673Z,99.90
2022-08-17T03:54:55.919Z,99.90
2022-08-17T03:57:23.768Z,99.90
2022-08-17T03:59:52.729Z,99.90
2022-08-17T04:02:27.276Z,99.90
2022-08-17T04:04:54.858Z,99.90
2022-08-17T04:07:25.401Z,99.90
2022-08-17T04:09:53.397Z,99.90
2022-08-17T04:12:23.037Z,99.90
2022-08-17T04:14:53.365Z,99.90
2022-08-17T04:17:24.919Z,99.90
2022-08-17T04:19:53.266Z,99.90
2022-08-17T04:22:31.129Z,99.90
2022-08-17T04:25:15.626Z,99.90
2022-08-17T04:27:43.207Z,99.90
2022-08-17T04:30:11.379Z,99.90
2022-08-17T04:33:09.717Z,99.90
2022-08-17T04:35:41.417Z,99.90
2022-08-17T04:38:12.279Z,99.90
2022-08-17T04:40:58.170Z,99.90
2022-08-17T04:43:27.868Z,99.90
2022-08-17T04:45:58.278Z,99.90
2022-08-17T04:48:36.084Z,99.90
2022-08-17T04:51:14.616Z,99.90
2022-08-17T04:53:44.760Z,99.90
2022-08-17T04:56:26.118Z,99.90
2022-08-17T04:58:59.437Z,99.90
2022-08-17T05:01:29.197Z,99.90
2022-08-17T05:03:59.716Z,99.90
2022-08-17T05:06:30.523Z,99.90
2022-08-17T05:08:59.526Z,99.90
2022-08-17T05:11:28.507Z,99.90
2022-08-17T05:13:57.837Z,99.90
2022-08-17T05:16:27.617Z,99.90
2022-08-17T05:18:55.666Z,99.90
2022-08-17T05:21:23.857Z,99.90
2022-08-17T05:23:54.727Z,99.90
2022-08-17T05:26:26.973Z,99.90
2022-08-17T05:29:00.534Z,99.90
2022-08-17T05:31:31.332Z,99.90
2022-08-17T05:34:13.761Z,99.90
2022-08-17T05:36:42.706Z,99.90
2022-08-17T05:39:16.977Z,99.90
2022-08-17T05:41:48.678Z,99.90
2022-08-17T05:44:16.797Z,99.90
2022-08-17T05:46:51.227Z,99.90
2022-08-17T05:49:27.375Z,99.90
2022-08-17T05:52:13.127Z,99.90
2022-08-17T05:57:44.799Z,99.90
2022-08-17T06:00:30.807Z,99.90
2022-08-17T06:02:59.417Z,99.90
2022-08-17T06:06:00.705Z,99.90
2022-08-17T06:08:51.492Z,99.90
2022-08-17T06:11:58.831Z,99.90
2022-08-17T06:14:26.458Z,99.90
2022-08-17T06:17:02.661Z,99.90
2022-08-17T06:19:40.950Z,99.90
2022-08-17T06:25:12.898Z,99.90
2022-08-17T06:28:04.936Z,99.90
2022-08-17T06:31:00.104Z,99.90
2022-08-17T06:33:36.031Z,99.90
2022-08-17T06:36:45.268Z,99.90
2022-08-17T06:39:28.065Z,99.90
2022-08-17T06:43:02.111Z,99.90
2022-08-17T06:45:14.618Z,99.90
2022-08-17T06:47:59.737Z,99.90
2022-08-17T06:50:38.547Z,99.90
2022-08-17T06:53:21.237Z,99.90
2022-08-17T06:56:04.617Z,99.90
2022-08-17T06:58:33.927Z,99.90
2022-08-17T07:01:10.960Z,99.90
2022-08-17T07:03:42.327Z,99.90
2022-08-17T07:06:19.967Z,99.90
2022-08-17T07:12:05.348Z,99.90
2022-08-17T07:14:48.617Z,99.90
2022-08-17T07:17:20.667Z,99.90
2022-08-17T07:19:50.170Z,99.90
2022-08-17T07:22:57.665Z,99.90
2022-08-17T07:25:30.840Z,99.90
2022-08-17T07:28:02.636Z,99.90
2022-08-17T07:30:47.478Z,99.90
2022-08-17T07:33:22.897Z,99.90
2022-08-17T07:35:50.611Z,99.90
2022-08-17T07:38:26.976Z,99.90
2022-08-17T07:41:03.816Z,99.90
2022-08-17T07:43:40.205Z,99.90
2022-08-17T07:46:42.543Z,99.90
2022-08-17T07:49:09.842Z,99.90
2022-08-17T07:51:43.485Z,99.90
2022-08-17T07:54:16.805Z,99.90
2022-08-17T07:56:44.150Z,99.90
2022-08-17T07:59:28.663Z,99.90
2022-08-17T08:02:03.923Z,99.90
2022-08-17T08:04:59.037Z,99.90
2022-08-17T08:07:56.492Z,99.90
2022-08-17T08:10:38.282Z,99.90
2022-08-17T08:16:12.842Z,99.90
2022-08-17T08:18:55.351Z,99.90
2022-08-17T08:21:29.443Z,99.90
2022-08-17T08:24:06.066Z,99.90
2022-08-17T08:26:55.673Z,99.90
2022-08-17T08:29:42.743Z,99.90
2022-08-17T08:32:50.333Z,99.90
2022-08-17T08:35:46.582Z,99.90
2022-08-17T08:38:27.393Z,99.90
2022-08-17T08:41:22.140Z,99.90
2022-08-17T08:44:01.070Z,99.90
2022-08-17T08:50:07.198Z,99.90
2022-08-17T08:52:52.981Z,99.90
2022-08-17T08:55:51.203Z,99.90
2022-08-17T08:58:50.801Z,99.90
2022-08-17T09:01:50.137Z,99.90
2022-08-17T09:04:25.224Z,99.90
2022-08-17T09:07:11.281Z,99.90
2022-08-17T09:09:54.175Z,99.90
2022-08-17T09:12:47.822Z,99.90
2022-08-17T09:15:22.089Z,99.90
2022-08-17T09:18:58.912Z,99.90
2022-08-17T09:21:13.843Z,99.90
2022-08-17T09:24:07.040Z,99.90
2022-08-17T09:26:40.141Z,99.80
2022-08-17T09:29:13.082Z,99.20
2022-08-17T09:31:52.578Z,98.70
2022-08-17T09:34:32.057Z,99.60
2022-08-17T09:37:23.932Z,99.90
2022-08-17T09:40:16.087Z,99.90
2022-08-17T09:43:10.541Z,99.90
2022-08-17T09:45:54.503Z,99.90
2022-08-17T09:48:32.274Z,99.90
2022-08-17T09:51:24.282Z,99.90
2022-08-17T09:53:51.792Z,99.40
2022-08-17T09:56:33.796Z,99.20
2022-08-17T09:59:01.042Z,99.70
2022-08-17T10:02:26.124Z,99.90
2022-08-17T10:05:12.628Z,99.90
2022-08-17T10:08:24.332Z,99.80
2022-08-17T10:11:11.760Z,98.80
2022-08-17T10:13:59.680Z,97.50
2022-08-17T10:16:58.995Z,97.20
2022-08-17T10:19:45.432Z,97.20
2022-08-17T10:22:39.958Z,95.90
2022-08-17T10:25:42.591Z,95.40
2022-08-17T10:28:19.664Z,94.30
2022-08-17T10:31:05.250Z,94.10
2022-08-17T10:34:03.114Z,93.50
2022-08-17T10:36:48.511Z,94.10
2022-08-17T10:39:21.769Z,93.90
2022-08-17T10:41:54.440Z,93.40
2022-08-17T10:45:00.608Z,92.80
2022-08-17T10:48:23.172Z,93.40
2022-08-17T10:50:56.348Z,94.60
2022-08-17T10:53:32.095Z,95.10
2022-08-17T10:56:27.441Z,95.30
2022-08-17T10:58:57.724Z,95.70
2022-08-17T11:01:42.293Z,95.40
2022-08-17T11:04:27.102Z,95.70
2022-08-17T11:07:44.194Z,96.00
2022-08-17T11:10:30.203Z,96.40
2022-08-17T11:13:13.332Z,96.80
2022-08-17T11:16:09.091Z,96.80
2022-08-17T11:19:10.567Z,97.00
2022-08-17T11:21:55.911Z,97.30
2022-08-17T11:24:47.125Z,97.50
2022-08-17T11:27:14.351Z,97.70
2022-08-17T11:30:01.930Z,97.90
2022-08-17T11:32:37.471Z,97.60
2022-08-17T11:35:21.221Z,97.80
2022-08-17T11:38:00.983Z,97.30
2022-08-17T11:41:08.040Z,96.40
2022-08-17T11:44:10.712Z,96.00
2022-08-17T11:47:14.571Z,95.40
2022-08-17T11:50:28.017Z,94.70
2022-08-17T11:53:16.642Z,91.80
2022-08-17T11:55:52.701Z,90.80
2022-08-17T11:58:57.500Z,90.80
2022-08-17T12:01:26.942Z,90.90
2022-08-17T12:04:14.439Z,90.80
2022-08-17T12:07:19.521Z,90.60
2022-08-17T12:09:51.051Z,88.40
2022-08-17T12:12:22.671Z,88.00
2022-08-17T12:15:09.998Z,87.60
2022-08-17T12:17:39.679Z,87.90
2022-08-17T12:20:23.661Z,87.00
2022-08-17T12:23:01.380Z,85.60
2022-08-17T12:25:41.811Z,85.50
2022-08-17T12:28:31.715Z,87.20
2022-08-17T12:31:03.551Z,90.00
2022-08-17T12:33:31.393Z,88.10
2022-08-17T12:36:03.365Z,84.20
2022-08-17T12:38:36.354Z,80.80
2022-08-17T12:41:23.890Z,80.50
2022-08-17T12:44:12.391Z,81.40
2022-08-17T12:47:00.540Z,82.00
2022-08-17T12:49:28.320Z,83.40
2022-08-17T12:52:29.119Z,83.90
2022-08-17T12:54:59.760Z,81.10
2022-08-17T12:57:54.270Z,79.20
2022-08-17T13:00:29.320Z,78.60
2022-08-17T13:03:13.420Z,79.20
2022-08-17T13:05:44.072Z,80.40
2022-08-17T13:08:18.790Z,75.80
2022-08-17T13:11:03.984Z,74.90
2022-08-17T13:13:41.701Z,73.50
2022-08-17T13:16:12.144Z,72.80
2022-08-17T13:19:12.951Z,73.10
2022-08-17T13:21:48.062Z,73.00
2022-08-17T13:24:26.651Z,70.80
2022-08-17T13:27:09.630Z,69.10
2022-08-17T13:29:45.881Z,70.90
2022-08-17T13:32:33.597Z,71.80
2022-08-17T13:35:14.845Z,72.30
2022-08-17T13:38:02.416Z,72.60
2022-08-17T13:40:37.255Z,70.20
2022-08-17T13:43:05.620Z,70.80
2022-08-17T13:45:38.991Z,70.00
2022-08-17T13:48:12.540Z,71.50
2022-08-17T13:50:56.806Z,70.00
2022-08-17T13:53:33.129Z,68.10
2022-08-17T13:56:37.394Z,68.60
2022-08-17T13:59:09.198Z,70.20
2022-08-17T14:01:40.461Z,68.50
2022-08-17T14:04:13.671Z,68.60
2022-08-17T14:06:54.408Z,68.60
2022-08-17T14:09:33.568Z,69.50
2022-08-17T14:12:12.810Z,70.10
2022-08-17T14:14:40.976Z,68.80
2022-08-17T14:17:08.213Z,68.70
2022-08-17T14:19:35.995Z,70.50
2022-08-17T14:22:05.129Z,70.70
2022-08-17T14:24:35.312Z,71.70
2022-08-17T14:27:05.264Z,70.00
2022-08-17T14:29:34.522Z,70.20
2022-08-17T14:32:17.222Z,70.40
2022-08-17T14:34:45.453Z,71.10
2022-08-17T14:37:12.964Z,72.50
2022-08-17T14:39:40.395Z,73.70
2022-08-17T14:42:07.952Z,72.40
2022-08-17T14:44:35.294Z,70.80
2022-08-17T14:47:04.431Z,69.40
2022-08-17T14:49:31.880Z,69.60
2022-08-17T14:52:02.422Z,69.00
2022-08-17T14:54:34.200Z,69.10
2022-08-17T14:57:23.717Z,70.20
2022-08-17T14:59:55.151Z,69.70
2022-08-17T15:02:30.466Z,70.80
2022-08-17T15:05:06.326Z,69.20
2022-08-17T15:07:33.954Z,67.30
2022-08-17T15:10:02.328Z,66.70
2022-08-17T15:12:33.703Z,67.80
2022-08-17T15:15:04.654Z,68.70
2022-08-17T15:17:44.299Z,70.30
2022-08-17T15:20:24.078Z,70.80
2022-08-17T15:22:55.535Z,70.10
2022-08-17T15:25:24.666Z,70.80
2022-08-17T15:27:52.513Z,70.60
2022-08-17T15:30:20.560Z,70.10
2022-08-17T15:32:54.577Z,69.30
2022-08-17T15:35:27.750Z,68.70
2022-08-17T15:37:58.470Z,70.20
2022-08-17T15:40:26.104Z,69.60
2022-08-17T15:42:53.813Z,69.50
2022-08-17T15:45:25.045Z,70.40
2022-08-17T15:47:53.594Z,69.50
2022-08-17T15:50:21.145Z,69.40
2022-08-17T15:52:56.347Z,70.30
2022-08-17T15:55:24.636Z,70.20
2022-08-17T15:57:52.573Z,69.90
2022-08-17T16:00:20.431Z,71.00
2022-08-17T16:03:45.181Z,70.90
2022-08-17T16:05:36.317Z,71.00
2022-08-17T16:08:04.812Z,70.90
2022-08-17T16:10:35.051Z,71.30
2022-08-17T16:13:04.725Z,70.90
2022-08-17T16:15:32.686Z,70.50
2022-08-17T16:18:00.475Z,71.30
2022-08-17T16:20:28.308Z,71.40
2022-08-17T16:25:38.322Z,73.60
2022-08-17T16:28:22.105Z,74.40
2022-08-17T16:30:49.526Z,75.90
2022-08-17T16:33:17.026Z,76.10
2022-08-17T16:35:44.486Z,75.40
2022-08-17T16:38:12.705Z,75.40
2022-08-17T16:40:42.487Z,75.70
2022-08-17T16:43:12.270Z,76.00
2022-08-17T16:45:40.875Z,76.20
2022-08-17T16:48:09.707Z,76.80
2022-08-17T16:50:37.929Z,76.70
2022-08-17T16:53:16.445Z,76.60
2022-08-17T16:55:48.574Z,77.30
2022-08-17T16:58:16.633Z,78.40
2022-08-17T17:00:46.404Z,78.10
2022-08-17T17:06:22.751Z,77.50
2022-08-17T17:09:07.235Z,77.40
2022-08-17T17:11:38.632Z,76.80
2022-08-17T17:14:10.516Z,77.20
2022-08-17T17:19:52.154Z,77.30
2022-08-17T17:25:32.720Z,79.60
2022-08-17T17:28:26.955Z,81.00
2022-08-17T17:31:03.585Z,81.20
2022-08-17T17:33:45.326Z,81.80
2022-08-17T17:36:48.566Z,82.50
2022-08-17T17:39:43.731Z,83.30
2022-08-17T17:42:19.904Z,84.80
2022-08-17T17:44:54.265Z,85.10
2022-08-17T17:47:21.965Z,85.70
2022-08-17T17:49:49.784Z,85.50
2022-08-17T17:52:20.227Z,86.00
2022-08-17T17:55:17.685Z,87.20
2022-08-17T17:58:06.854Z,88.60
2022-08-17T18:00:55.546Z,89.90
2022-08-17T18:03:40.929Z,90.70
2022-08-17T18:06:52.393Z,91.10
2022-08-17T18:09:33.979Z,91.60
2022-08-17T18:12:17.165Z,91.70
2022-08-17T18:15:08.155Z,91.80
2022-08-17T18:17:36.528Z,91.80
2022-08-17T18:20:07.164Z,91.60
2022-08-17T18:22:35.075Z,91.60
2022-08-17T18:25:06.305Z,90.60
2022-08-17T18:27:50.725Z,90.70
2022-08-17T18:30:18.366Z,90.60
2022-08-17T18:32:49.755Z,90.80
2022-08-17T18:35:20.194Z,91.00
2022-08-17T18:37:51.728Z,91.10
2022-08-17T18:40:19.840Z,91.40
2022-08-17T18:43:05.478Z,91.40
2022-08-17T18:45:45.297Z,91.50
2022-08-17T18:48:24.683Z,91.50
2022-08-17T18:50:56.031Z,91.30
2022-08-17T18:53:41.136Z,91.40
2022-08-17T18:56:23.704Z,91.50
2022-08-17T18:59:02.755Z,91.70
2022-08-17T19:01:52.584Z,91.90
2022-08-17T19:04:37.755Z,92.10
2022-08-17T19:07:24.014Z,92.20
2022-08-17T19:10:03.945Z,92.40
2022-08-17T19:12:43.915Z,92.70
2022-08-17T19:15:15.110Z,93.10
2022-08-17T19:17:56.906Z,93.30
2022-08-17T19:20:34.588Z,93.60
2022-08-17T19:23:20.266Z,93.80
2022-08-17T19:25:53.365Z,94.10
2022-08-17T19:28:49.324Z,94.30
2022-08-17T19:31:22.964Z,94.70
2022-08-17T19:33:51.126Z,95.20
2022-08-17T19:36:25.476Z,95.50
2022-08-17T19:39:20.257Z,95.90
2022-08-17T19:42:10.265Z,96.40
2022-08-17T19:44:55.596Z,96.70
2022-08-17T19:47:53.696Z,97.10
2022-08-17T19:50:49.845Z,97.10
2022-08-17T19:54:01.426Z,97.50
2022-08-17T19:57:10.266Z,97.60
2022-08-17T19:59:41.716Z,98.10
2022-08-17T20:02:30.683Z,98.10
2022-08-17T20:05:03.346Z,98.60
2022-08-17T20:08:03.656Z,98.70
2022-08-17T20:10:55.087Z,99.00
2022-08-17T20:13:49.985Z,99.10
2022-08-17T20:16:19.614Z,99.70
2022-08-17T20:19:08.191Z,99.40
2022-08-17T20:21:56.847Z,99.60
2022-08-17T20:25:00.705Z,99.60
2022-08-17T20:27:32.576Z,99.80
2022-08-17T20:32:52.980Z,99.90
2022-08-17T20:35:30.654Z,99.90
2022-08-17T20:38:04.524Z,99.90
2022-08-17T20:41:00.025Z,99.90
2022-08-17T20:43:33.646Z,99.90
2022-08-17T20:46:24.115Z,99.90
2022-08-17T20:48:55.925Z,99.90
2022-08-17T20:52:00.820Z,99.90
2022-08-17T20:54:58.693Z,99.90
2022-08-17T20:57:32.126Z,99.90
2022-08-17T21:00:16.723Z,99.90
2022-08-17T21:02:49.674Z,99.90
2022-08-17T21:05:34.794Z,99.90
2022-08-17T21:08:17.272Z,99.90
2022-08-17T21:10:47.167Z,99.90
2022-08-17T21:13:15.664Z,99.90
2022-08-17T21:15:43.121Z,99.90
2022-08-17T21:21:19.602Z,99.90
2022-08-17T21:24:22.533Z,99.90
2022-08-17T21:27:27.555Z,99.90
2022-08-17T21:30:08.537Z,99.90
2022-08-17T21:32:41.837Z,99.90
2022-08-17T21:35:29.005Z,99.90
2022-08-17T21:38:02.562Z,99.90
2022-08-17T21:40:32.396Z,99.90
2022-08-17T21:43:08.514Z,99.90
2022-08-17T21:45:39.032Z,99.90
2022-08-17T21:48:15.573Z,99.90
2022-08-17T21:50:47.712Z,99.90
2022-08-17T21:53:28.129Z,99.90
2022-08-17T21:55:58.123Z,99.90
2022-08-17T22:01:57.793Z,99.90
2022-08-17T22:04:47.012Z,99.90
2022-08-17T22:07:14.532Z,99.90
2022-08-17T22:09:43.294Z,99.90
2022-08-17T22:12:16.896Z,99.90
2022-08-17T22:14:58.446Z,99.90
2022-08-17T22:17:30.043Z,99.90
2022-08-17T22:20:06.237Z,99.90
2022-08-17T22:23:17.653Z,99.90
2022-08-17T22:26:03.924Z,99.90
2022-08-17T22:28:42.705Z,99.90
2022-08-17T22:31:15.856Z,99.90
2022-08-17T22:34:02.676Z,99.90
2022-08-17T22:36:38.778Z,99.90
2022-08-17T22:39:08.894Z,99.90
2022-08-17T22:41:48.278Z,99.90
2022-08-17T22:44:18.375Z,99.90
2022-08-17T22:46:55.405Z,99.90
2022-08-17T22:49:54.077Z,99.90
2022-08-17T22:55:36.847Z,99.90
2022-08-17T22:58:33.399Z,99.90
2022-08-17T23:01:26.974Z,99.90
2022-08-17T23:04:02.592Z,99.90
2022-08-17T23:06:33.939Z,99.90
2022-08-17T23:09:04.308Z,99.90
2022-08-17T23:11:53.686Z,99.90
2022-08-17T23:14:22.617Z,99.90
2022-08-17T23:16:52.994Z,99.90
2022-08-17T23:19:21.984Z,99.90
2022-08-17T23:21:51.147Z,99.90
2022-08-17T23:24:24.045Z,99.90
2022-08-17T23:26:51.455Z,99.90
2022-08-17T23:29:21.441Z,99.90
2022-08-17T23:31:51.242Z,99.90
2022-08-17T23:34:19.505Z,99.90
2022-08-17T23:36:52.407Z,99.90
2022-08-17T23:39:24.670Z,99.90
2022-08-17T23:41:58.363Z,99.90
2022-08-17T23:44:26.735Z,99.90
2022-08-17T23:46:54.934Z,99.90
2022-08-17T23:49:23.577Z,99.90
2022-08-17T23:51:53.858Z,99.90
2022-08-17T23:54:46.678Z,99.90
2022-08-17T23:57:17.359Z,99.90
2022-08-17T23:59:45.695Z,99.90
